sensor_id;sensor_type;location;lat;lon;timestamp;P1;durP1;ratioP1;P2;durP2;ratioP2
36359;SDS011;22388;52.432;20.662;2023-11-21T00:00:46;28.55;;;18.95;;
36359;SDS011;22388;52.432;20.662;2023-11-21T00:04:10;27.13;;;17.58;;
36359;SDS011;22388;52.432;20.662;2023-11-21T00:07:38;27.30;;;19.00;;
36359;SDS011;22388;52.432;20.662;2023-11-21T00:11:02;28.33;;;19.17;;
36359;SDS011;22388;52.432;20.662;2023-11-21T00:14:27;28.02;;;18.73;;
36359;SDS011;22388;52.432;20.662;2023-11-21T00:17:52;29.52;;;18.35;;
36359;SDS011;22388;52.432;20.662;2023-11-21T00:21:16;26.00;;;17.00;;
36359;SDS011;22388;52.432;20.662;2023-11-21T00:24:41;26.17;;;17.95;;
36359;SDS011;22388;52.432;20.662;2023-11-21T00:28:05;27.40;;;17.35;;
36359;SDS011;22388;52.432;20.662;2023-11-21T00:31:29;28.58;;;17.65;;
36359;SDS011;22388;52.432;20.662;2023-11-21T00:34:53;27.83;;;17.92;;
36359;SDS011;22388;52.432;20.662;2023-11-21T00:38:17;27.55;;;17.75;;
36359;SDS011;22388;52.432;20.662;2023-11-21T00:41:41;28.75;;;17.65;;
36359;SDS011;22388;52.432;20.662;2023-11-21T00:45:06;25.30;;;18.20;;
36359;SDS011;22388;52.432;20.662;2023-11-21T00:48:32;27.10;;;18.13;;
36359;SDS011;22388;52.432;20.662;2023-11-21T00:51:57;30.67;;;19.50;;
36359;SDS011;22388;52.432;20.662;2023-11-21T00:55:21;27.88;;;18.63;;
36359;SDS011;22388;52.432;20.662;2023-11-21T00:58:46;28.25;;;18.20;;
36359;SDS011;22388;52.432;20.662;2023-11-21T01:02:10;27.33;;;18.42;;
36359;SDS011;22388;52.432;20.662;2023-11-21T01:05:34;32.85;;;19.38;;
36359;SDS011;22388;52.432;20.662;2023-11-21T01:08:58;29.90;;;19.80;;
36359;SDS011;22388;52.432;20.662;2023-11-21T01:12:22;28.95;;;19.13;;
36359;SDS011;22388;52.432;20.662;2023-11-21T01:15:46;27.30;;;18.85;;
36359;SDS011;22388;52.432;20.662;2023-11-21T01:19:10;25.77;;;17.45;;
36359;SDS011;22388;52.432;20.662;2023-11-21T01:22:38;27.40;;;18.73;;
36359;SDS011;22388;52.432;20.662;2023-11-21T01:26:02;27.63;;;18.40;;
36359;SDS011;22388;52.432;20.662;2023-11-21T01:29:27;28.67;;;18.15;;
36359;SDS011;22388;52.432;20.662;2023-11-21T01:32:51;28.70;;;19.08;;
36359;SDS011;22388;52.432;20.662;2023-11-21T01:36:15;31.33;;;19.63;;
36359;SDS011;22388;52.432;20.662;2023-11-21T01:39:39;29.33;;;19.33;;
36359;SDS011;22388;52.432;20.662;2023-11-21T01:43:03;32.10;;;20.75;;
36359;SDS011;22388;52.432;20.662;2023-11-21T01:46:28;29.85;;;20.42;;
36359;SDS011;22388;52.432;20.662;2023-11-21T01:49:52;30.73;;;19.60;;
36359;SDS011;22388;52.432;20.662;2023-11-21T01:53:16;30.02;;;20.33;;
36359;SDS011;22388;52.432;20.662;2023-11-21T01:56:42;32.42;;;20.88;;
36359;SDS011;22388;52.432;20.662;2023-11-21T02:00:06;28.42;;;18.75;;
36359;SDS011;22388;52.432;20.662;2023-11-21T02:03:31;37.00;;;21.20;;
36359;SDS011;22388;52.432;20.662;2023-11-21T02:06:56;33.00;;;19.52;;
36359;SDS011;22388;52.432;20.662;2023-11-21T02:10:21;36.53;;;20.33;;
36359;SDS011;22388;52.432;20.662;2023-11-21T02:13:46;35.38;;;21.02;;
36359;SDS011;22388;52.432;20.662;2023-11-21T02:17:10;36.28;;;21.23;;
36359;SDS011;22388;52.432;20.662;2023-11-21T02:20:36;35.28;;;21.75;;
36359;SDS011;22388;52.432;20.662;2023-11-21T02:24:01;37.17;;;22.38;;
36359;SDS011;22388;52.432;20.662;2023-11-21T02:27:26;32.13;;;20.42;;
36359;SDS011;22388;52.432;20.662;2023-11-21T02:30:53;31.77;;;20.27;;
36359;SDS011;22388;52.432;20.662;2023-11-21T02:34:19;33.30;;;20.85;;
36359;SDS011;22388;52.432;20.662;2023-11-21T02:37:49;34.22;;;20.25;;
36359;SDS011;22388;52.432;20.662;2023-11-21T02:41:13;34.00;;;20.40;;
36359;SDS011;22388;52.432;20.662;2023-11-21T02:44:37;34.90;;;21.60;;
36359;SDS011;22388;52.432;20.662;2023-11-21T02:48:01;37.60;;;21.88;;
36359;SDS011;22388;52.432;20.662;2023-11-21T02:51:26;33.40;;;21.48;;
36359;SDS011;22388;52.432;20.662;2023-11-21T02:54:50;35.15;;;22.27;;
36359;SDS011;22388;52.432;20.662;2023-11-21T02:58:15;33.97;;;20.52;;
36359;SDS011;22388;52.432;20.662;2023-11-21T03:01:39;33.65;;;20.70;;
36359;SDS011;22388;52.432;20.662;2023-11-21T03:05:04;33.20;;;19.90;;
36359;SDS011;22388;52.432;20.662;2023-11-21T03:08:29;26.45;;;17.95;;
36359;SDS011;22388;52.432;20.662;2023-11-21T03:11:53;28.02;;;18.63;;
36359;SDS011;22388;52.432;20.662;2023-11-21T03:15:18;28.17;;;16.20;;
36359;SDS011;22388;52.432;20.662;2023-11-21T03:18:42;28.08;;;17.35;;
36359;SDS011;22388;52.432;20.662;2023-11-21T03:22:06;29.70;;;17.23;;
36359;SDS011;22388;52.432;20.662;2023-11-21T03:25:30;25.67;;;16.17;;
36359;SDS011;22388;52.432;20.662;2023-11-21T03:28:55;29.45;;;17.33;;
36359;SDS011;22388;52.432;20.662;2023-11-21T03:32:20;26.35;;;16.27;;
36359;SDS011;22388;52.432;20.662;2023-11-21T03:35:44;25.02;;;15.93;;
36359;SDS011;22388;52.432;20.662;2023-11-21T03:39:08;27.30;;;15.63;;
36359;SDS011;22388;52.432;20.662;2023-11-21T03:42:34;26.67;;;15.88;;
36359;SDS011;22388;52.432;20.662;2023-11-21T03:45:58;27.27;;;16.20;;
36359;SDS011;22388;52.432;20.662;2023-11-21T03:49:22;22.92;;;14.63;;
36359;SDS011;22388;52.432;20.662;2023-11-21T03:52:46;25.88;;;15.95;;
36359;SDS011;22388;52.432;20.662;2023-11-21T03:56:10;23.75;;;14.90;;
36359;SDS011;22388;52.432;20.662;2023-11-21T03:59:34;23.13;;;14.90;;
36359;SDS011;22388;52.432;20.662;2023-11-21T04:02:58;24.75;;;14.02;;
36359;SDS011;22388;52.432;20.662;2023-11-21T04:06:22;24.40;;;14.95;;
36359;SDS011;22388;52.432;20.662;2023-11-21T04:09:47;22.95;;;15.07;;
36359;SDS011;22388;52.432;20.662;2023-11-21T04:13:11;24.75;;;14.02;;
36359;SDS011;22388;52.432;20.662;2023-11-21T04:16:35;23.00;;;14.52;;
36359;SDS011;22388;52.432;20.662;2023-11-21T04:19:59;22.50;;;13.82;;
36359;SDS011;22388;52.432;20.662;2023-11-21T04:23:23;20.95;;;13.60;;
36359;SDS011;22388;52.432;20.662;2023-11-21T04:26:47;25.73;;;13.43;;
36359;SDS011;22388;52.432;20.662;2023-11-21T04:30:12;20.42;;;12.52;;
36359;SDS011;22388;52.432;20.662;2023-11-21T04:33:36;18.52;;;12.02;;
36359;SDS011;22388;52.432;20.662;2023-11-21T04:37:00;21.13;;;12.10;;
36359;SDS011;22388;52.432;20.662;2023-11-21T04:40:25;17.30;;;11.75;;
36359;SDS011;22388;52.432;20.662;2023-11-21T04:43:49;18.10;;;12.40;;
36359;SDS011;22388;52.432;20.662;2023-11-21T04:47:13;19.48;;;12.20;;
36359;SDS011;22388;52.432;20.662;2023-11-21T04:50:38;17.02;;;11.45;;
36359;SDS011;22388;52.432;20.662;2023-11-21T04:54:02;21.35;;;12.57;;
36359;SDS011;22388;52.432;20.662;2023-11-21T04:57:27;16.88;;;11.18;;
36359;SDS011;22388;52.432;20.662;2023-11-21T05:00:51;20.67;;;12.00;;
36359;SDS011;22388;52.432;20.662;2023-11-21T05:04:16;19.48;;;12.45;;
36359;SDS011;22388;52.432;20.662;2023-11-21T05:07:40;21.33;;;12.82;;
36359;SDS011;22388;52.432;20.662;2023-11-21T05:11:04;20.48;;;13.13;;
36359;SDS011;22388;52.432;20.662;2023-11-21T05:14:28;20.33;;;13.10;;
36359;SDS011;22388;52.432;20.662;2023-11-21T05:17:52;19.48;;;12.27;;
36359;SDS011;22388;52.432;20.662;2023-11-21T05:21:16;22.13;;;13.32;;
36359;SDS011;22388;52.432;20.662;2023-11-21T05:24:40;21.63;;;13.43;;
36359;SDS011;22388;52.432;20.662;2023-11-21T05:28:06;21.42;;;13.75;;
36359;SDS011;22388;52.432;20.662;2023-11-21T05:31:30;22.38;;;13.60;;
36359;SDS011;22388;52.432;20.662;2023-11-21T05:34:54;23.20;;;14.95;;
36359;SDS011;22388;52.432;20.662;2023-11-21T05:38:18;26.25;;;15.07;;
36359;SDS011;22388;52.432;20.662;2023-11-21T05:41:43;23.58;;;14.00;;
36359;SDS011;22388;52.432;20.662;2023-11-21T05:45:08;27.20;;;14.77;;
36359;SDS011;22388;52.432;20.662;2023-11-21T05:48:33;21.00;;;13.52;;
36359;SDS011;22388;52.432;20.662;2023-11-21T05:51:57;22.02;;;13.93;;
36359;SDS011;22388;52.432;20.662;2023-11-21T05:55:22;22.95;;;14.00;;
36359;SDS011;22388;52.432;20.662;2023-11-21T05:58:46;25.15;;;14.77;;
36359;SDS011;22388;52.432;20.662;2023-11-21T06:02:11;22.75;;;14.07;;
36359;SDS011;22388;52.432;20.662;2023-11-21T06:05:35;22.17;;;13.70;;
36359;SDS011;22388;52.432;20.662;2023-11-21T06:08:59;19.77;;;12.93;;
36359;SDS011;22388;52.432;20.662;2023-11-21T06:12:23;20.67;;;12.77;;
36359;SDS011;22388;52.432;20.662;2023-11-21T06:15:50;20.60;;;11.77;;
36359;SDS011;22388;52.432;20.662;2023-11-21T06:19:16;18.08;;;12.15;;
36359;SDS011;22388;52.432;20.662;2023-11-21T06:22:44;20.15;;;12.45;;
36359;SDS011;22388;52.432;20.662;2023-11-21T06:26:08;19.98;;;12.48;;
36359;SDS011;22388;52.432;20.662;2023-11-21T06:29:32;20.50;;;12.23;;
36359;SDS011;22388;52.432;20.662;2023-11-21T06:32:57;20.63;;;12.38;;
36359;SDS011;22388;52.432;20.662;2023-11-21T06:36:21;17.33;;;11.60;;
36359;SDS011;22388;52.432;20.662;2023-11-21T06:39:51;21.40;;;11.30;;
36359;SDS011;22388;52.432;20.662;2023-11-21T06:43:15;27.75;;;15.52;;
36359;SDS011;22388;52.432;20.662;2023-11-21T06:46:39;20.63;;;13.73;;
36359;SDS011;22388;52.432;20.662;2023-11-21T06:50:03;25.75;;;14.68;;
36359;SDS011;22388;52.432;20.662;2023-11-21T06:53:27;25.20;;;14.48;;
36359;SDS011;22388;52.432;20.662;2023-11-21T06:56:51;25.48;;;15.00;;
36359;SDS011;22388;52.432;20.662;2023-11-21T07:00:17;23.88;;;15.00;;
36359;SDS011;22388;52.432;20.662;2023-11-21T07:03:41;25.30;;;14.73;;
36359;SDS011;22388;52.432;20.662;2023-11-21T07:07:06;23.08;;;14.07;;
36359;SDS011;22388;52.432;20.662;2023-11-21T07:10:30;26.58;;;15.02;;
36359;SDS011;22388;52.432;20.662;2023-11-21T07:13:54;27.08;;;14.73;;
36359;SDS011;22388;52.432;20.662;2023-11-21T07:17:18;25.63;;;15.35;;
36359;SDS011;22388;52.432;20.662;2023-11-21T07:20:42;26.02;;;16.10;;
36359;SDS011;22388;52.432;20.662;2023-11-21T07:24:07;27.88;;;15.55;;
36359;SDS011;22388;52.432;20.662;2023-11-21T07:27:32;28.98;;;16.63;;
36359;SDS011;22388;52.432;20.662;2023-11-21T07:30:56;26.17;;;16.45;;
36359;SDS011;22388;52.432;20.662;2023-11-21T07:34:20;29.10;;;17.15;;
36359;SDS011;22388;52.432;20.662;2023-11-21T07:37:45;29.83;;;16.92;;
36359;SDS011;22388;52.432;20.662;2023-11-21T07:41:09;30.02;;;17.17;;
36359;SDS011;22388;52.432;20.662;2023-11-21T07:44:34;27.15;;;14.93;;
36359;SDS011;22388;52.432;20.662;2023-11-21T07:47:58;27.60;;;15.32;;
36359;SDS011;22388;52.432;20.662;2023-11-21T07:51:22;25.60;;;15.70;;
36359;SDS011;22388;52.432;20.662;2023-11-21T07:54:46;25.08;;;15.95;;
36359;SDS011;22388;52.432;20.662;2023-11-21T07:58:12;24.60;;;15.25;;
36359;SDS011;22388;52.432;20.662;2023-11-21T08:01:37;27.85;;;16.77;;
36359;SDS011;22388;52.432;20.662;2023-11-21T08:05:01;30.02;;;17.38;;
36359;SDS011;22388;52.432;20.662;2023-11-21T08:08:26;27.17;;;16.30;;
36359;SDS011;22388;52.432;20.662;2023-11-21T08:11:51;29.02;;;16.83;;
36359;SDS011;22388;52.432;20.662;2023-11-21T08:15:19;28.42;;;17.48;;
36359;SDS011;22388;52.432;20.662;2023-11-21T08:18:52;26.60;;;17.13;;
36359;SDS011;22388;52.432;20.662;2023-11-21T08:23:04;27.25;;;16.77;;
36359;SDS011;22388;52.432;20.662;2023-11-21T08:26:29;28.25;;;16.83;;
36359;SDS011;22388;52.432;20.662;2023-11-21T08:29:53;30.05;;;17.17;;
36359;SDS011;22388;52.432;20.662;2023-11-21T08:33:19;27.75;;;16.60;;
36359;SDS011;22388;52.432;20.662;2023-11-21T08:36:43;31.30;;;15.90;;
36359;SDS011;22388;52.432;20.662;2023-11-21T08:40:08;26.02;;;16.17;;
36359;SDS011;22388;52.432;20.662;2023-11-21T08:43:34;27.02;;;16.05;;
36359;SDS011;22388;52.432;20.662;2023-11-21T08:46:59;31.90;;;18.05;;
36359;SDS011;22388;52.432;20.662;2023-11-21T08:50:22;27.33;;;15.68;;
36359;SDS011;22388;52.432;20.662;2023-11-21T08:53:46;28.75;;;16.80;;
36359;SDS011;22388;52.432;20.662;2023-11-21T08:57:11;27.27;;;16.33;;
36359;SDS011;22388;52.432;20.662;2023-11-21T09:00:35;27.25;;;16.85;;
36359;SDS011;22388;52.432;20.662;2023-11-21T09:03:59;26.98;;;16.80;;
36359;SDS011;22388;52.432;20.662;2023-11-21T09:07:24;25.85;;;16.15;;
36359;SDS011;22388;52.432;20.662;2023-11-21T09:10:55;27.05;;;16.73;;
36359;SDS011;22388;52.432;20.662;2023-11-21T09:14:29;26.08;;;15.32;;
36359;SDS011;22388;52.432;20.662;2023-11-21T09:21:20;28.98;;;15.27;;
36359;SDS011;22388;52.432;20.662;2023-11-21T09:25:06;27.23;;;16.67;;
36359;SDS011;22388;52.432;20.662;2023-11-21T09:28:30;28.30;;;16.58;;
36359;SDS011;22388;52.432;20.662;2023-11-21T09:32:05;29.05;;;16.23;;
36359;SDS011;22388;52.432;20.662;2023-11-21T09:35:32;27.60;;;15.68;;
36359;SDS011;22388;52.432;20.662;2023-11-21T09:39:06;27.70;;;16.02;;
36359;SDS011;22388;52.432;20.662;2023-11-21T09:42:40;28.52;;;16.45;;
36359;SDS011;22388;52.432;20.662;2023-11-21T09:46:06;29.63;;;16.33;;
36359;SDS011;22388;52.432;20.662;2023-11-21T09:49:35;32.35;;;17.55;;
36359;SDS011;22388;52.432;20.662;2023-11-21T09:53:22;29.38;;;17.67;;
36359;SDS011;22388;52.432;20.662;2023-11-21T09:56:46;27.27;;;17.27;;
36359;SDS011;22388;52.432;20.662;2023-11-21T10:00:10;29.52;;;16.50;;
36359;SDS011;22388;52.432;20.662;2023-11-21T10:03:35;31.10;;;17.05;;
36359;SDS011;22388;52.432;20.662;2023-11-21T10:07:00;30.13;;;17.00;;
36359;SDS011;22388;52.432;20.662;2023-11-21T10:10:24;31.20;;;16.80;;
36359;SDS011;22388;52.432;20.662;2023-11-21T10:13:54;29.80;;;16.42;;
36359;SDS011;22388;52.432;20.662;2023-11-21T10:17:19;29.20;;;17.00;;
36359;SDS011;22388;52.432;20.662;2023-11-21T10:20:45;31.45;;;17.02;;
36359;SDS011;22388;52.432;20.662;2023-11-21T10:24:09;27.80;;;16.02;;
36359;SDS011;22388;52.432;20.662;2023-11-21T10:27:40;30.17;;;16.95;;
36359;SDS011;22388;52.432;20.662;2023-11-21T10:31:06;27.60;;;16.30;;
36359;SDS011;22388;52.432;20.662;2023-11-21T10:34:30;29.55;;;16.85;;
36359;SDS011;22388;52.432;20.662;2023-11-21T10:38:07;34.45;;;17.85;;
36359;SDS011;22388;52.432;20.662;2023-11-21T10:41:31;28.83;;;15.23;;
36359;SDS011;22388;52.432;20.662;2023-11-21T10:44:58;28.52;;;16.48;;
36359;SDS011;22388;52.432;20.662;2023-11-21T10:48:24;30.38;;;17.63;;
36359;SDS011;22388;52.432;20.662;2023-11-21T10:51:53;30.65;;;16.67;;
36359;SDS011;22388;52.432;20.662;2023-11-21T10:55:20;31.25;;;18.02;;
36359;SDS011;22388;52.432;20.662;2023-11-21T10:58:47;26.02;;;16.15;;
36359;SDS011;22388;52.432;20.662;2023-11-21T11:02:24;30.75;;;18.15;;
36359;SDS011;22388;52.432;20.662;2023-11-21T11:05:48;35.75;;;18.55;;
36359;SDS011;22388;52.432;20.662;2023-11-21T11:09:16;29.05;;;17.67;;
36359;SDS011;22388;52.432;20.662;2023-11-21T11:12:41;26.92;;;16.42;;
36359;SDS011;22388;52.432;20.662;2023-11-21T11:16:08;30.05;;;17.85;;
36359;SDS011;22388;52.432;20.662;2023-11-21T11:19:34;26.75;;;16.02;;
36359;SDS011;22388;52.432;20.662;2023-11-21T11:30:42;28.80;;;17.27;;
36359;SDS011;22388;52.432;20.662;2023-11-21T11:37:51;31.15;;;17.23;;
36359;SDS011;22388;52.432;20.662;2023-11-21T11:41:23;28.42;;;17.05;;
36359;SDS011;22388;52.432;20.662;2023-11-21T11:44:49;32.05;;;17.35;;
36359;SDS011;22388;52.432;20.662;2023-11-21T11:48:16;31.90;;;17.75;;
36359;SDS011;22388;52.432;20.662;2023-11-21T11:55:39;27.13;;;16.80;;
36359;SDS011;22388;52.432;20.662;2023-11-21T11:59:05;30.75;;;17.20;;
36359;SDS011;22388;52.432;20.662;2023-11-21T12:02:39;26.77;;;15.93;;
36359;SDS011;22388;52.432;20.662;2023-11-21T12:06:04;28.77;;;17.38;;
36359;SDS011;22388;52.432;20.662;2023-11-21T12:09:30;26.60;;;17.15;;
36359;SDS011;22388;52.432;20.662;2023-11-21T12:12:56;28.25;;;17.23;;
36359;SDS011;22388;52.432;20.662;2023-11-21T12:16:21;32.85;;;17.55;;
36359;SDS011;22388;52.432;20.662;2023-11-21T12:19:46;24.60;;;15.63;;
36359;SDS011;22388;52.432;20.662;2023-11-21T12:23:13;27.80;;;16.30;;
36359;SDS011;22388;52.432;20.662;2023-11-21T12:26:39;28.00;;;16.67;;
36359;SDS011;22388;52.432;20.662;2023-11-21T12:30:03;26.60;;;16.35;;
36359;SDS011;22388;52.432;20.662;2023-11-21T12:33:27;25.67;;;15.13;;
36359;SDS011;22388;52.432;20.662;2023-11-21T12:36:51;26.13;;;15.98;;
36359;SDS011;22388;52.432;20.662;2023-11-21T12:40:17;26.48;;;15.50;;
36359;SDS011;22388;52.432;20.662;2023-11-21T12:43:42;28.73;;;16.08;;
36359;SDS011;22388;52.432;20.662;2023-11-21T12:47:07;26.73;;;15.35;;
36359;SDS011;22388;52.432;20.662;2023-11-21T12:50:36;25.92;;;15.52;;
36359;SDS011;22388;52.432;20.662;2023-11-21T12:54:00;25.08;;;14.77;;
36359;SDS011;22388;52.432;20.662;2023-11-21T12:57:27;28.35;;;15.63;;
36359;SDS011;22388;52.432;20.662;2023-11-21T13:00:51;28.55;;;16.15;;
36359;SDS011;22388;52.432;20.662;2023-11-21T13:04:16;28.17;;;15.80;;
36359;SDS011;22388;52.432;20.662;2023-11-21T13:07:48;25.60;;;15.00;;
36359;SDS011;22388;52.432;20.662;2023-11-21T13:11:12;25.75;;;15.20;;
36359;SDS011;22388;52.432;20.662;2023-11-21T13:14:39;29.63;;;16.23;;
36359;SDS011;22388;52.432;20.662;2023-11-21T13:18:06;28.05;;;16.05;;
36359;SDS011;22388;52.432;20.662;2023-11-21T13:21:30;30.02;;;16.98;;
36359;SDS011;22388;52.432;20.662;2023-11-21T13:24:56;26.77;;;15.40;;
36359;SDS011;22388;52.432;20.662;2023-11-21T13:28:20;28.77;;;16.30;;
36359;SDS011;22388;52.432;20.662;2023-11-21T13:31:46;29.30;;;16.00;;
36359;SDS011;22388;52.432;20.662;2023-11-21T13:35:16;32.13;;;16.77;;
36359;SDS011;22388;52.432;20.662;2023-11-21T13:38:48;28.25;;;16.33;;
36359;SDS011;22388;52.432;20.662;2023-11-21T13:42:15;26.73;;;15.63;;
36359;SDS011;22388;52.432;20.662;2023-11-21T13:45:39;27.63;;;15.68;;
36359;SDS011;22388;52.432;20.662;2023-11-21T13:49:04;31.02;;;16.08;;
36359;SDS011;22388;52.432;20.662;2023-11-21T13:52:29;25.98;;;14.68;;
36359;SDS011;22388;52.432;20.662;2023-11-21T13:55:53;26.25;;;15.65;;
36359;SDS011;22388;52.432;20.662;2023-11-21T13:59:17;30.98;;;14.95;;
36359;SDS011;22388;52.432;20.662;2023-11-21T14:03:04;24.60;;;15.27;;
36359;SDS011;22388;52.432;20.662;2023-11-21T14:06:48;25.20;;;14.63;;
36359;SDS011;22388;52.432;20.662;2023-11-21T14:10:13;26.42;;;15.43;;
36359;SDS011;22388;52.432;20.662;2023-11-21T14:13:42;25.63;;;14.75;;
36359;SDS011;22388;52.432;20.662;2023-11-21T14:17:06;23.95;;;14.23;;
36359;SDS011;22388;52.432;20.662;2023-11-21T14:20:33;23.08;;;12.90;;
36359;SDS011;22388;52.432;20.662;2023-11-21T14:23:57;23.92;;;14.48;;
36359;SDS011;22388;52.432;20.662;2023-11-21T14:27:25;25.65;;;14.60;;
36359;SDS011;22388;52.432;20.662;2023-11-21T14:30:49;31.55;;;15.50;;
36359;SDS011;22388;52.432;20.662;2023-11-21T14:34:13;25.98;;;13.80;;
36359;SDS011;22388;52.432;20.662;2023-11-21T14:37:37;24.52;;;13.57;;
36359;SDS011;22388;52.432;20.662;2023-11-21T14:41:05;26.52;;;13.70;;
36359;SDS011;22388;52.432;20.662;2023-11-21T14:44:29;30.45;;;14.35;;
36359;SDS011;22388;52.432;20.662;2023-11-21T14:47:55;27.67;;;14.13;;
36359;SDS011;22388;52.432;20.662;2023-11-21T14:51:32;26.65;;;14.38;;
36359;SDS011;22388;52.432;20.662;2023-11-21T14:55:08;26.02;;;13.98;;
36359;SDS011;22388;52.432;20.662;2023-11-21T14:58:32;24.80;;;13.82;;
36359;SDS011;22388;52.432;20.662;2023-11-21T15:01:57;26.75;;;13.35;;
36359;SDS011;22388;52.432;20.662;2023-11-21T15:05:21;25.85;;;14.05;;
36359;SDS011;22388;52.432;20.662;2023-11-21T15:08:49;28.92;;;15.10;;
36359;SDS011;22388;52.432;20.662;2023-11-21T15:12:14;28.58;;;14.48;;
36359;SDS011;22388;52.432;20.662;2023-11-21T15:15:40;24.30;;;13.77;;
36359;SDS011;22388;52.432;20.662;2023-11-21T15:19:08;24.08;;;13.60;;
36359;SDS011;22388;52.432;20.662;2023-11-21T15:22:33;24.88;;;13.82;;
36359;SDS011;22388;52.432;20.662;2023-11-21T15:26:00;23.83;;;13.18;;
36359;SDS011;22388;52.432;20.662;2023-11-21T15:29:24;22.95;;;13.18;;
36359;SDS011;22388;52.432;20.662;2023-11-21T15:32:53;21.83;;;13.35;;
36359;SDS011;22388;52.432;20.662;2023-11-21T15:36:18;22.00;;;12.15;;
36359;SDS011;22388;52.432;20.662;2023-11-21T15:39:42;23.67;;;13.05;;
36359;SDS011;22388;52.432;20.662;2023-11-21T15:43:08;23.80;;;14.05;;
36359;SDS011;22388;52.432;20.662;2023-11-21T15:46:35;24.67;;;12.90;;
36359;SDS011;22388;52.432;20.662;2023-11-21T15:50:00;30.52;;;14.73;;
36359;SDS011;22388;52.432;20.662;2023-11-21T15:53:28;24.90;;;13.88;;
36359;SDS011;22388;52.432;20.662;2023-11-21T15:56:55;22.25;;;13.27;;
36359;SDS011;22388;52.432;20.662;2023-11-21T16:00:19;25.98;;;12.38;;
36359;SDS011;22388;52.432;20.662;2023-11-21T16:03:45;20.15;;;12.50;;
36359;SDS011;22388;52.432;20.662;2023-11-21T16:07:09;24.60;;;13.73;;
36359;SDS011;22388;52.432;20.662;2023-11-21T16:10:33;28.00;;;13.65;;
36359;SDS011;22388;52.432;20.662;2023-11-21T16:14:01;20.83;;;12.98;;
36359;SDS011;22388;52.432;20.662;2023-11-21T16:17:33;19.90;;;12.10;;
36359;SDS011;22388;52.432;20.662;2023-11-21T16:20:57;22.30;;;12.82;;
36359;SDS011;22388;52.432;20.662;2023-11-21T16:28:04;22.42;;;13.02;;
36359;SDS011;22388;52.432;20.662;2023-11-21T16:31:28;23.27;;;12.15;;
36359;SDS011;22388;52.432;20.662;2023-11-21T16:34:53;22.38;;;11.80;;
36359;SDS011;22388;52.432;20.662;2023-11-21T16:38:17;22.05;;;12.05;;
36359;SDS011;22388;52.432;20.662;2023-11-21T16:41:44;21.48;;;11.45;;
36359;SDS011;22388;52.432;20.662;2023-11-21T16:45:08;24.15;;;12.68;;
36359;SDS011;22388;52.432;20.662;2023-11-21T16:48:33;23.83;;;12.18;;
36359;SDS011;22388;52.432;20.662;2023-11-21T16:51:58;22.02;;;12.50;;
36359;SDS011;22388;52.432;20.662;2023-11-21T16:55:22;20.65;;;12.55;;
36359;SDS011;22388;52.432;20.662;2023-11-21T16:58:48;22.70;;;11.60;;
36359;SDS011;22388;52.432;20.662;2023-11-21T17:02:16;25.73;;;11.63;;
36359;SDS011;22388;52.432;20.662;2023-11-21T17:05:41;23.23;;;11.35;;
36359;SDS011;22388;52.432;20.662;2023-11-21T17:09:06;24.63;;;11.15;;
36359;SDS011;22388;52.432;20.662;2023-11-21T17:12:34;22.60;;;11.35;;
36359;SDS011;22388;52.432;20.662;2023-11-21T17:15:58;22.92;;;10.95;;
36359;SDS011;22388;52.432;20.662;2023-11-21T17:19:22;22.75;;;10.93;;
36359;SDS011;22388;52.432;20.662;2023-11-21T17:22:46;22.42;;;10.93;;
36359;SDS011;22388;52.432;20.662;2023-11-21T17:26:11;22.52;;;11.35;;
36359;SDS011;22388;52.432;20.662;2023-11-21T17:29:35;18.75;;;10.15;;
36359;SDS011;22388;52.432;20.662;2023-11-21T17:32:59;17.73;;;9.93;;
36359;SDS011;22388;52.432;20.662;2023-11-21T17:36:24;20.33;;;9.57;;
36359;SDS011;22388;52.432;20.662;2023-11-21T17:39:48;19.95;;;9.15;;
36359;SDS011;22388;52.432;20.662;2023-11-21T17:43:12;17.75;;;9.30;;
36359;SDS011;22388;52.432;20.662;2023-11-21T17:46:37;16.90;;;9.27;;
36359;SDS011;22388;52.432;20.662;2023-11-21T17:50:01;17.25;;;9.93;;
36359;SDS011;22388;52.432;20.662;2023-11-21T17:53:26;19.95;;;9.32;;
36359;SDS011;22388;52.432;20.662;2023-11-21T17:56:50;22.63;;;9.75;;
36359;SDS011;22388;52.432;20.662;2023-11-21T18:00:14;19.40;;;9.23;;
36359;SDS011;22388;52.432;20.662;2023-11-21T18:04:00;22.52;;;9.98;;
36359;SDS011;22388;52.432;20.662;2023-11-21T18:07:30;21.85;;;10.20;;
36359;SDS011;22388;52.432;20.662;2023-11-21T18:10:54;18.25;;;10.20;;
36359;SDS011;22388;52.432;20.662;2023-11-21T18:14:18;21.67;;;10.88;;
36359;SDS011;22388;52.432;20.662;2023-11-21T18:17:44;17.70;;;9.82;;
36359;SDS011;22388;52.432;20.662;2023-11-21T18:21:08;22.42;;;11.20;;
36359;SDS011;22388;52.432;20.662;2023-11-21T18:24:32;21.70;;;11.00;;
36359;SDS011;22388;52.432;20.662;2023-11-21T18:27:56;18.55;;;9.73;;
36359;SDS011;22388;52.432;20.662;2023-11-21T18:31:20;23.25;;;12.00;;
36359;SDS011;22388;52.432;20.662;2023-11-21T18:34:48;20.50;;;10.98;;
36359;SDS011;22388;52.432;20.662;2023-11-21T18:38:14;26.08;;;10.23;;
36359;SDS011;22388;52.432;20.662;2023-11-21T18:41:42;22.15;;;10.63;;
36359;SDS011;22388;52.432;20.662;2023-11-21T18:45:09;24.20;;;10.02;;
36359;SDS011;22388;52.432;20.662;2023-11-21T18:48:34;20.83;;;10.13;;
36359;SDS011;22388;52.432;20.662;2023-11-21T18:52:00;17.67;;;9.32;;
36359;SDS011;22388;52.432;20.662;2023-11-21T18:55:25;17.77;;;9.00;;
36359;SDS011;22388;52.432;20.662;2023-11-21T18:58:51;20.55;;;9.68;;
36359;SDS011;22388;52.432;20.662;2023-11-21T19:02:16;19.48;;;9.35;;
36359;SDS011;22388;52.432;20.662;2023-11-21T19:05:40;17.48;;;8.88;;
36359;SDS011;22388;52.432;20.662;2023-11-21T19:09:04;19.20;;;8.43;;
36359;SDS011;22388;52.432;20.662;2023-11-21T19:12:30;16.50;;;8.40;;
36359;SDS011;22388;52.432;20.662;2023-11-21T19:15:54;14.85;;;7.38;;
36359;SDS011;22388;52.432;20.662;2023-11-21T19:19:18;17.90;;;8.32;;
36359;SDS011;22388;52.432;20.662;2023-11-21T19:22:43;19.65;;;8.15;;
36359;SDS011;22388;52.432;20.662;2023-11-21T19:26:08;18.10;;;7.80;;
36359;SDS011;22388;52.432;20.662;2023-11-21T19:29:32;14.98;;;7.10;;
36359;SDS011;22388;52.432;20.662;2023-11-21T19:32:58;13.50;;;7.25;;
36359;SDS011;22388;52.432;20.662;2023-11-21T19:36:22;13.65;;;6.38;;
36359;SDS011;22388;52.432;20.662;2023-11-21T19:39:47;14.27;;;6.78;;
36359;SDS011;22388;52.432;20.662;2023-11-21T19:43:11;12.93;;;6.03;;
36359;SDS011;22388;52.432;20.662;2023-11-21T19:46:35;17.95;;;7.30;;
36359;SDS011;22388;52.432;20.662;2023-11-21T19:50:03;16.48;;;6.95;;
36359;SDS011;22388;52.432;20.662;2023-11-21T19:53:31;14.75;;;7.32;;
36359;SDS011;22388;52.432;20.662;2023-11-21T19:56:57;18.42;;;7.60;;
36359;SDS011;22388;52.432;20.662;2023-11-21T20:00:22;17.30;;;7.55;;
36359;SDS011;22388;52.432;20.662;2023-11-21T20:03:46;17.00;;;8.63;;
36359;SDS011;22388;52.432;20.662;2023-11-21T20:07:10;15.60;;;7.47;;
36359;SDS011;22388;52.432;20.662;2023-11-21T20:10:34;14.98;;;6.38;;